Kezdőlap
METAR-TAF:

METAR-TAF

Repülőterek :

Forlì repülőtér

Forlì, Olaszország

földrajzi szélesség: 44-12N, földrajzi hosszúság: 012-04E, magasság: 27 m

Jelenlegi meteorológiai megfigyelések

A jelentés 15 órával és 52 perccel ezelõtt készült, 16:50 UTC
Különbözõ irányokból fújó szél 1 kt
Hőmérséklet 5°C
Páratartalom 38%
Légköri nyomás 1016 hPa
Látótávolság 10 km, vagy több
felhőtlen 1500 m magasságban, és nincs gomolyfelhõ

METAR: LIPK 271650Z VRB01KT CAVOK 05/M08 Q1016

Idő: 09:42 (08:42 UTC)


TAF: hiányzik

Meteorológiai megfigyelések és előrejelzések több, mint 4000 repülőtéren (METAR és TAF jelentéseket).

A térképen piros és sárga pontok jelzik az elérhető meteorológiai állomásokat.

Mozgassa az egeret a pont fölött, hogy megjelenjen az állomás neve.

Azután kattintson az időjárási megfigyelések és előrejelzések megtekintéséhez.

A térkép megváltoztatása: kattintson a fekete keresztel jelölt zöld gombra ráközelítéshez, a vonallal jelölt zöld gombra távolításhoz, vagy a zöld nyilakra a szomszédos térképek eléréséhez.


METAR-TAF: